sensor_id;sensor_type;location;lat;lon;timestamp;P1;durP1;ratioP1;P2;durP2;ratioP2
65279;SDS011;51878;55.748;48.742;2023-09-07T00:01:06;2.47;;;1.98;;
65279;SDS011;51878;55.748;48.742;2023-09-07T00:06:09;3.03;;;1.60;;
65279;SDS011;51878;55.748;48.742;2023-09-07T00:11:11;1.90;;;1.73;;
65279;SDS011;51878;55.748;48.742;2023-09-07T00:16:14;1.58;;;1.42;;
65279;SDS011;51878;55.748;48.742;2023-09-07T00:21:16;1.90;;;1.60;;
65279;SDS011;51878;55.748;48.742;2023-09-07T00:26:18;2.60;;;1.70;;
65279;SDS011;51878;55.748;48.742;2023-09-07T00:31:20;2.35;;;1.48;;
65279;SDS011;51878;55.748;48.742;2023-09-07T00:36:23;1.20;;;1.10;;
65279;SDS011;51878;55.748;48.742;2023-09-07T00:41:25;1.23;;;0.90;;
65279;SDS011;51878;55.748;48.742;2023-09-07T00:46:27;1.30;;;0.98;;
65279;SDS011;51878;55.748;48.742;2023-09-07T00:51:29;1.17;;;0.90;;
65279;SDS011;51878;55.748;48.742;2023-09-07T00:56:32;1.17;;;0.88;;
65279;SDS011;51878;55.748;48.742;2023-09-07T01:01:35;0.90;;;0.90;;
65279;SDS011;51878;55.748;48.742;2023-09-07T01:06:39;1.08;;;0.98;;
65279;SDS011;51878;55.748;48.742;2023-09-07T01:11:42;2.63;;;1.30;;
65279;SDS011;51878;55.748;48.742;2023-09-07T01:16:45;1.35;;;1.02;;
65279;SDS011;51878;55.748;48.742;2023-09-07T01:21:48;0.95;;;0.93;;
65279;SDS011;51878;55.748;48.742;2023-09-07T01:26:50;1.10;;;0.98;;
65279;SDS011;51878;55.748;48.742;2023-09-07T01:31:52;2.33;;;1.00;;
65279;SDS011;51878;55.748;48.742;2023-09-07T01:36:55;1.88;;;1.20;;
65279;SDS011;51878;55.748;48.742;2023-09-07T01:41:57;1.23;;;1.13;;
65279;SDS011;51878;55.748;48.742;2023-09-07T01:46:59;2.47;;;1.45;;
65279;SDS011;51878;55.748;48.742;2023-09-07T01:52:01;1.15;;;1.13;;
65279;SDS011;51878;55.748;48.742;2023-09-07T01:57:04;2.13;;;0.90;;
65279;SDS011;51878;55.748;48.742;2023-09-07T02:02:06;1.48;;;1.13;;
65279;SDS011;51878;55.748;48.742;2023-09-07T02:07:09;2.13;;;1.30;;
65279;SDS011;51878;55.748;48.742;2023-09-07T02:12:11;3.47;;;1.33;;
65279;SDS011;51878;55.748;48.742;2023-09-07T02:17:13;2.60;;;1.67;;
65279;SDS011;51878;55.748;48.742;2023-09-07T02:22:19;1.65;;;1.30;;
65279;SDS011;51878;55.748;48.742;2023-09-07T02:27:21;1.70;;;1.30;;
65279;SDS011;51878;55.748;48.742;2023-09-07T02:32:24;6.13;;;1.50;;
65279;SDS011;51878;55.748;48.742;2023-09-07T02:37:26;2.53;;;1.40;;
65279;SDS011;51878;55.748;48.742;2023-09-07T02:42:28;1.92;;;1.50;;
65279;SDS011;51878;55.748;48.742;2023-09-07T02:47:30;3.08;;;1.30;;
65279;SDS011;51878;55.748;48.742;2023-09-07T02:52:33;1.63;;;1.40;;
65279;SDS011;51878;55.748;48.742;2023-09-07T02:57:35;1.23;;;1.13;;
65279;SDS011;51878;55.748;48.742;2023-09-07T03:02:37;3.05;;;1.45;;
65279;SDS011;51878;55.748;48.742;2023-09-07T03:07:39;2.15;;;1.40;;
65279;SDS011;51878;55.748;48.742;2023-09-07T03:12:42;1.45;;;1.35;;
65279;SDS011;51878;55.748;48.742;2023-09-07T03:17:44;1.48;;;1.33;;
65279;SDS011;51878;55.748;48.742;2023-09-07T03:22:46;2.33;;;1.38;;
65279;SDS011;51878;55.748;48.742;2023-09-07T03:27:49;1.52;;;1.13;;
65279;SDS011;51878;55.748;48.742;2023-09-07T03:32:51;3.05;;;1.55;;
65279;SDS011;51878;55.748;48.742;2023-09-07T03:37:53;1.67;;;1.40;;
65279;SDS011;51878;55.748;48.742;2023-09-07T03:42:55;1.85;;;1.33;;
65279;SDS011;51878;55.748;48.742;2023-09-07T03:48:00;2.58;;;1.20;;
65279;SDS011;51878;55.748;48.742;2023-09-07T03:53:02;1.45;;;1.27;;
65279;SDS011;51878;55.748;48.742;2023-09-07T03:58:05;2.50;;;1.60;;
65279;SDS011;51878;55.748;48.742;2023-09-07T04:03:07;2.88;;;1.15;;
65279;SDS011;51878;55.748;48.742;2023-09-07T04:08:10;2.63;;;1.00;;
65279;SDS011;51878;55.748;48.742;2023-09-07T04:13:12;1.42;;;1.10;;
65279;SDS011;51878;55.748;48.742;2023-09-07T04:18:16;2.70;;;1.08;;
65279;SDS011;51878;55.748;48.742;2023-09-07T04:23:18;2.42;;;1.40;;
65279;SDS011;51878;55.748;48.742;2023-09-07T04:28:21;2.15;;;1.35;;
65279;SDS011;51878;55.748;48.742;2023-09-07T04:33:23;1.50;;;1.40;;
65279;SDS011;51878;55.748;48.742;2023-09-07T04:38:25;2.92;;;1.15;;
65279;SDS011;51878;55.748;48.742;2023-09-07T04:43:27;2.22;;;1.15;;
65279;SDS011;51878;55.748;48.742;2023-09-07T04:48:30;3.90;;;1.30;;
65279;SDS011;51878;55.748;48.742;2023-09-07T04:53:33;1.58;;;1.38;;
65279;SDS011;51878;55.748;48.742;2023-09-07T04:58:37;2.20;;;1.30;;
65279;SDS011;51878;55.748;48.742;2023-09-07T05:03:40;2.58;;;1.30;;
65279;SDS011;51878;55.748;48.742;2023-09-07T05:08:43;1.48;;;1.13;;
65279;SDS011;51878;55.748;48.742;2023-09-07T05:13:45;2.60;;;1.30;;
65279;SDS011;51878;55.748;48.742;2023-09-07T05:18:47;3.33;;;1.40;;
65279;SDS011;51878;55.748;48.742;2023-09-07T05:23:49;1.42;;;1.20;;
65279;SDS011;51878;55.748;48.742;2023-09-07T05:28:52;1.30;;;1.20;;
65279;SDS011;51878;55.748;48.742;2023-09-07T05:33:54;2.88;;;1.17;;
65279;SDS011;51878;55.748;48.742;2023-09-07T05:38:56;1.58;;;1.10;;
65279;SDS011;51878;55.748;48.742;2023-09-07T05:43:58;1.05;;;0.98;;
65279;SDS011;51878;55.748;48.742;2023-09-07T05:49:01;2.83;;;1.02;;
65279;SDS011;51878;55.748;48.742;2023-09-07T05:54:03;5.63;;;1.17;;
65279;SDS011;51878;55.748;48.742;2023-09-07T05:59:06;1.98;;;1.13;;
65279;SDS011;51878;55.748;48.742;2023-09-07T06:04:08;1.48;;;1.00;;
65279;SDS011;51878;55.748;48.742;2023-09-07T06:09:10;4.95;;;1.67;;
65279;SDS011;51878;55.748;48.742;2023-09-07T06:14:12;1.80;;;1.20;;
65279;SDS011;51878;55.748;48.742;2023-09-07T06:19:15;1.33;;;0.98;;
65279;SDS011;51878;55.748;48.742;2023-09-07T06:24:17;3.70;;;1.20;;
65279;SDS011;51878;55.748;48.742;2023-09-07T06:29:19;8.60;;;1.10;;
65279;SDS011;51878;55.748;48.742;2023-09-07T06:34:21;1.02;;;0.88;;
65279;SDS011;51878;55.748;48.742;2023-09-07T06:39:24;1.75;;;1.10;;
65279;SDS011;51878;55.748;48.742;2023-09-07T06:44:26;2.13;;;1.00;;
65279;SDS011;51878;55.748;48.742;2023-09-07T06:49:31;1.13;;;0.95;;
65279;SDS011;51878;55.748;48.742;2023-09-07T06:54:34;2.40;;;0.93;;
65279;SDS011;51878;55.748;48.742;2023-09-07T06:59:36;1.45;;;1.00;;
65279;SDS011;51878;55.748;48.742;2023-09-07T07:04:38;0.80;;;0.80;;
65279;SDS011;51878;55.748;48.742;2023-09-07T07:09:40;1.50;;;0.90;;
65279;SDS011;51878;55.748;48.742;2023-09-07T07:14:43;11.90;;;1.25;;
65279;SDS011;51878;55.748;48.742;2023-09-07T07:19:45;2.88;;;0.98;;
65279;SDS011;51878;55.748;48.742;2023-09-07T07:24:47;1.40;;;0.98;;
65279;SDS011;51878;55.748;48.742;2023-09-07T07:29:50;0.90;;;0.70;;
65279;SDS011;51878;55.748;48.742;2023-09-07T07:34:53;3.22;;;0.85;;
65279;SDS011;51878;55.748;48.742;2023-09-07T07:39:55;0.70;;;0.70;;
65279;SDS011;51878;55.748;48.742;2023-09-07T07:44:58;0.70;;;0.70;;
65279;SDS011;51878;55.748;48.742;2023-09-07T07:50:00;0.60;;;0.60;;
65279;SDS011;51878;55.748;48.742;2023-09-07T07:55:02;0.90;;;0.90;;
65279;SDS011;51878;55.748;48.742;2023-09-07T08:00:05;0.90;;;0.75;;
65279;SDS011;51878;55.748;48.742;2023-09-07T08:05:08;0.75;;;0.75;;
65279;SDS011;51878;55.748;48.742;2023-09-07T08:10:11;2.28;;;1.00;;
65279;SDS011;51878;55.748;48.742;2023-09-07T08:15:13;0.73;;;0.70;;
65279;SDS011;51878;55.748;48.742;2023-09-07T08:20:16;0.77;;;0.77;;
65279;SDS011;51878;55.748;48.742;2023-09-07T08:25:19;0.93;;;0.70;;
65279;SDS011;51878;55.748;48.742;2023-09-07T08:30:22;0.95;;;0.80;;
65279;SDS011;51878;55.748;48.742;2023-09-07T08:35:26;2.75;;;0.98;;
65279;SDS011;51878;55.748;48.742;2023-09-07T08:40:29;1.65;;;1.17;;
65279;SDS011;51878;55.748;48.742;2023-09-07T08:45:31;2.65;;;1.10;;
65279;SDS011;51878;55.748;48.742;2023-09-07T08:50:42;4.97;;;1.50;;
65279;SDS011;51878;55.748;48.742;2023-09-07T08:55:51;4.07;;;1.30;;
65279;SDS011;51878;55.748;48.742;2023-09-07T09:00:53;1.80;;;0.90;;
65279;SDS011;51878;55.748;48.742;2023-09-07T09:06:03;0.80;;;0.80;;
65279;SDS011;51878;55.748;48.742;2023-09-07T09:11:08;3.03;;;1.10;;
65279;SDS011;51878;55.748;48.742;2023-09-07T09:16:11;4.13;;;1.67;;
65279;SDS011;51878;55.748;48.742;2023-09-07T09:21:17;3.60;;;0.70;;
65279;SDS011;51878;55.748;48.742;2023-09-07T09:26:19;0.70;;;0.70;;
65279;SDS011;51878;55.748;48.742;2023-09-07T09:31:21;0.85;;;0.85;;
65279;SDS011;51878;55.748;48.742;2023-09-07T09:36:32;3.35;;;1.10;;
65279;SDS011;51878;55.748;48.742;2023-09-07T09:41:35;1.85;;;0.70;;
65279;SDS011;51878;55.748;48.742;2023-09-07T09:46:40;1.27;;;0.90;;
65279;SDS011;51878;55.748;48.742;2023-09-07T09:51:44;1.90;;;0.90;;
65279;SDS011;51878;55.748;48.742;2023-09-07T09:56:47;1.33;;;1.10;;
65279;SDS011;51878;55.748;48.742;2023-09-07T10:01:49;1.08;;;0.90;;
65279;SDS011;51878;55.748;48.742;2023-09-07T10:06:57;1.80;;;0.98;;
65279;SDS011;51878;55.748;48.742;2023-09-07T10:12:11;1.30;;;1.08;;
65279;SDS011;51878;55.748;48.742;2023-09-07T10:17:23;2.78;;;1.10;;
65279;SDS011;51878;55.748;48.742;2023-09-07T10:22:25;1.02;;;0.80;;
65279;SDS011;51878;55.748;48.742;2023-09-07T10:27:36;1.67;;;0.88;;
65279;SDS011;51878;55.748;48.742;2023-09-07T10:32:39;1.75;;;1.00;;
65279;SDS011;51878;55.748;48.742;2023-09-07T10:37:45;1.10;;;0.90;;
65279;SDS011;51878;55.748;48.742;2023-09-07T10:43:02;1.48;;;1.38;;
65279;SDS011;51878;55.748;48.742;2023-09-07T10:48:07;1.45;;;1.00;;
65279;SDS011;51878;55.748;48.742;2023-09-07T10:53:11;3.13;;;1.15;;
65279;SDS011;51878;55.748;48.742;2023-09-07T10:58:23;2.53;;;1.80;;
65279;SDS011;51878;55.748;48.742;2023-09-07T11:03:32;1.73;;;0.82;;
65279;SDS011;51878;55.748;48.742;2023-09-07T11:08:35;1.95;;;0.98;;
65279;SDS011;51878;55.748;48.742;2023-09-07T11:13:37;2.15;;;1.00;;
65279;SDS011;51878;55.748;48.742;2023-09-07T11:18:42;0.98;;;0.98;;
65279;SDS011;51878;55.748;48.742;2023-09-07T11:23:44;2.42;;;1.30;;
65279;SDS011;51878;55.748;48.742;2023-09-07T11:28:47;4.05;;;1.33;;
65279;SDS011;51878;55.748;48.742;2023-09-07T11:33:49;2.17;;;0.98;;
65279;SDS011;51878;55.748;48.742;2023-09-07T11:38:51;2.33;;;0.90;;
65279;SDS011;51878;55.748;48.742;2023-09-07T11:43:55;5.85;;;1.52;;
65279;SDS011;51878;55.748;48.742;2023-09-07T11:48:57;1.00;;;0.90;;
65279;SDS011;51878;55.748;48.742;2023-09-07T11:54:03;4.13;;;0.88;;
65279;SDS011;51878;55.748;48.742;2023-09-07T11:59:06;10.50;;;1.20;;
65279;SDS011;51878;55.748;48.742;2023-09-07T12:04:09;0.60;;;0.60;;
65279;SDS011;51878;55.748;48.742;2023-09-07T12:09:11;3.70;;;0.60;;
65279;SDS011;51878;55.748;48.742;2023-09-07T12:14:13;3.55;;;0.35;;
65279;SDS011;51878;55.748;48.742;2023-09-07T12:19:16;1.23;;;0.40;;
65279;SDS011;51878;55.748;48.742;2023-09-07T12:24:18;0.95;;;0.70;;
65279;SDS011;51878;55.748;48.742;2023-09-07T12:29:21;1.67;;;0.50;;
65279;SDS011;51878;55.748;48.742;2023-09-07T12:34:23;2.85;;;0.52;;
65279;SDS011;51878;55.748;48.742;2023-09-07T12:39:26;0.52;;;0.52;;
65279;SDS011;51878;55.748;48.742;2023-09-07T12:44:29;2.13;;;0.55;;
65279;SDS011;51878;55.748;48.742;2023-09-07T12:49:31;0.80;;;0.75;;
65279;SDS011;51878;55.748;48.742;2023-09-07T12:54:34;1.50;;;1.40;;
65279;SDS011;51878;55.748;48.742;2023-09-07T12:59:38;0.73;;;0.73;;
65279;SDS011;51878;55.748;48.742;2023-09-07T13:04:40;1.33;;;1.00;;
65279;SDS011;51878;55.748;48.742;2023-09-07T13:09:43;1.35;;;1.10;;
65279;SDS011;51878;55.748;48.742;2023-09-07T13:14:46;1.95;;;0.70;;
65279;SDS011;51878;55.748;48.742;2023-09-07T13:19:49;1.00;;;0.68;;
65279;SDS011;51878;55.748;48.742;2023-09-07T13:24:53;1.27;;;0.70;;
65279;SDS011;51878;55.748;48.742;2023-09-07T13:29:55;1.65;;;0.75;;
65279;SDS011;51878;55.748;48.742;2023-09-07T13:34:59;0.82;;;0.60;;
65279;SDS011;51878;55.748;48.742;2023-09-07T13:40:02;1.52;;;0.93;;
65279;SDS011;51878;55.748;48.742;2023-09-07T13:45:04;0.70;;;0.70;;
65279;SDS011;51878;55.748;48.742;2023-09-07T13:50:07;2.08;;;0.60;;
65279;SDS011;51878;55.748;48.742;2023-09-07T13:55:10;0.73;;;0.68;;
65279;SDS011;51878;55.748;48.742;2023-09-07T14:00:12;1.58;;;0.63;;
65279;SDS011;51878;55.748;48.742;2023-09-07T14:05:15;0.50;;;0.50;;
65279;SDS011;51878;55.748;48.742;2023-09-07T14:10:17;0.47;;;0.47;;
65279;SDS011;51878;55.748;48.742;2023-09-07T14:15:19;0.50;;;0.50;;
65279;SDS011;51878;55.748;48.742;2023-09-07T14:20:22;1.95;;;0.80;;
65279;SDS011;51878;55.748;48.742;2023-09-07T14:25:24;0.50;;;0.50;;
65279;SDS011;51878;55.748;48.742;2023-09-07T14:30:26;0.50;;;0.50;;
65279;SDS011;51878;55.748;48.742;2023-09-07T14:35:28;2.10;;;0.73;;
65279;SDS011;51878;55.748;48.742;2023-09-07T14:40:31;0.60;;;0.60;;
65279;SDS011;51878;55.748;48.742;2023-09-07T14:45:33;0.57;;;0.57;;
65279;SDS011;51878;55.748;48.742;2023-09-07T14:50:36;0.50;;;0.50;;
65279;SDS011;51878;55.748;48.742;2023-09-07T14:55:39;0.50;;;0.50;;
65279;SDS011;51878;55.748;48.742;2023-09-07T15:00:42;0.50;;;0.50;;
65279;SDS011;51878;55.748;48.742;2023-09-07T15:05:44;0.45;;;0.45;;
65279;SDS011;51878;55.748;48.742;2023-09-07T15:10:46;1.08;;;0.60;;
65279;SDS011;51878;55.748;48.742;2023-09-07T15:15:49;0.57;;;0.57;;
65279;SDS011;51878;55.748;48.742;2023-09-07T15:20:53;0.52;;;0.52;;
65279;SDS011;51878;55.748;48.742;2023-09-07T15:25:55;0.50;;;0.50;;
65279;SDS011;51878;55.748;48.742;2023-09-07T15:30:58;0.95;;;0.70;;
65279;SDS011;51878;55.748;48.742;2023-09-07T15:36:00;0.70;;;0.70;;
65279;SDS011;51878;55.748;48.742;2023-09-07T15:41:03;0.77;;;0.73;;
65279;SDS011;51878;55.748;48.742;2023-09-07T15:46:06;2.50;;;0.68;;
65279;SDS011;51878;55.748;48.742;2023-09-07T15:51:10;1.13;;;0.68;;
65279;SDS011;51878;55.748;48.742;2023-09-07T15:56:12;2.03;;;0.80;;
65279;SDS011;51878;55.748;48.742;2023-09-07T16:01:14;1.13;;;0.85;;
65279;SDS011;51878;55.748;48.742;2023-09-07T16:06:17;3.88;;;1.10;;
65279;SDS011;51878;55.748;48.742;2023-09-07T16:11:20;0.75;;;0.75;;
65279;SDS011;51878;55.748;48.742;2023-09-07T16:16:22;0.90;;;0.77;;
65279;SDS011;51878;55.748;48.742;2023-09-07T16:21:25;0.88;;;0.80;;
65279;SDS011;51878;55.748;48.742;2023-09-07T16:26:27;2.20;;;0.70;;
65279;SDS011;51878;55.748;48.742;2023-09-07T16:31:30;1.10;;;1.10;;
65279;SDS011;51878;55.748;48.742;2023-09-07T16:36:33;3.20;;;0.70;;
65279;SDS011;51878;55.748;48.742;2023-09-07T16:41:35;1.65;;;0.88;;
65279;SDS011;51878;55.748;48.742;2023-09-07T16:46:37;1.15;;;0.80;;
65279;SDS011;51878;55.748;48.742;2023-09-07T16:51:44;0.80;;;0.80;;
65279;SDS011;51878;55.748;48.742;2023-09-07T16:56:47;0.90;;;0.90;;
65279;SDS011;51878;55.748;48.742;2023-09-07T17:01:49;1.20;;;1.10;;
65279;SDS011;51878;55.748;48.742;2023-09-07T17:06:54;1.77;;;1.02;;
65279;SDS011;51878;55.748;48.742;2023-09-07T17:12:07;1.08;;;0.93;;
65279;SDS011;51878;55.748;48.742;2023-09-07T17:17:10;0.80;;;0.80;;
65279;SDS011;51878;55.748;48.742;2023-09-07T17:22:13;1.63;;;1.13;;
65279;SDS011;51878;55.748;48.742;2023-09-07T17:27:17;2.97;;;1.30;;
65279;SDS011;51878;55.748;48.742;2023-09-07T17:32:19;1.20;;;1.00;;
65279;SDS011;51878;55.748;48.742;2023-09-07T17:37:24;3.60;;;1.30;;
65279;SDS011;51878;55.748;48.742;2023-09-07T17:42:26;4.95;;;1.40;;
65279;SDS011;51878;55.748;48.742;2023-09-07T17:47:28;1.80;;;1.63;;
65279;SDS011;51878;55.748;48.742;2023-09-07T17:52:32;2.38;;;1.10;;
65279;SDS011;51878;55.748;48.742;2023-09-07T17:57:34;1.00;;;0.88;;
65279;SDS011;51878;55.748;48.742;2023-09-07T18:02:36;2.40;;;1.20;;
65279;SDS011;51878;55.748;48.742;2023-09-07T18:07:42;3.38;;;0.90;;
65279;SDS011;51878;55.748;48.742;2023-09-07T18:12:44;1.52;;;0.90;;
65279;SDS011;51878;55.748;48.742;2023-09-07T18:17:46;2.25;;;1.27;;
65279;SDS011;51878;55.748;48.742;2023-09-07T18:22:54;5.78;;;0.90;;
65279;SDS011;51878;55.748;48.742;2023-09-07T18:27:57;2.28;;;0.93;;
65279;SDS011;51878;55.748;48.742;2023-09-07T18:32:59;1.20;;;1.05;;
65279;SDS011;51878;55.748;48.742;2023-09-07T18:38:04;1.60;;;0.80;;
65279;SDS011;51878;55.748;48.742;2023-09-07T18:43:06;2.05;;;1.13;;
65279;SDS011;51878;55.748;48.742;2023-09-07T18:48:09;4.10;;;1.15;;
65279;SDS011;51878;55.748;48.742;2023-09-07T18:53:11;2.90;;;1.10;;
65279;SDS011;51878;55.748;48.742;2023-09-07T18:58:13;1.10;;;0.80;;
65279;SDS011;51878;55.748;48.742;2023-09-07T19:03:16;1.00;;;0.85;;
65279;SDS011;51878;55.748;48.742;2023-09-07T19:08:18;0.98;;;0.73;;
65279;SDS011;51878;55.748;48.742;2023-09-07T19:13:20;0.95;;;0.93;;
65279;SDS011;51878;55.748;48.742;2023-09-07T19:18:23;2.05;;;0.98;;
65279;SDS011;51878;55.748;48.742;2023-09-07T19:23:28;0.98;;;0.88;;
65279;SDS011;51878;55.748;48.742;2023-09-07T19:28:30;1.42;;;0.90;;
65279;SDS011;51878;55.748;48.742;2023-09-07T19:33:33;1.00;;;1.00;;
65279;SDS011;51878;55.748;48.742;2023-09-07T19:38:35;0.90;;;0.90;;
65279;SDS011;51878;55.748;48.742;2023-09-07T19:43:37;2.05;;;0.88;;
65279;SDS011;51878;55.748;48.742;2023-09-07T19:48:39;1.05;;;0.88;;
65279;SDS011;51878;55.748;48.742;2023-09-07T19:53:42;0.73;;;0.70;;
65279;SDS011;51878;55.748;48.742;2023-09-07T19:58:45;0.73;;;0.73;;
65279;SDS011;51878;55.748;48.742;2023-09-07T20:03:48;1.10;;;1.00;;
65279;SDS011;51878;55.748;48.742;2023-09-07T20:08:51;1.75;;;1.17;;
65279;SDS011;51878;55.748;48.742;2023-09-07T20:13:54;1.23;;;0.90;;
65279;SDS011;51878;55.748;48.742;2023-09-07T20:18:56;1.02;;;0.90;;
65279;SDS011;51878;55.748;48.742;2023-09-07T20:23:58;1.65;;;0.70;;
65279;SDS011;51878;55.748;48.742;2023-09-07T20:29:01;0.98;;;0.98;;
65279;SDS011;51878;55.748;48.742;2023-09-07T20:34:11;2.67;;;0.90;;
65279;SDS011;51878;55.748;48.742;2023-09-07T20:39:13;0.85;;;0.82;;
65279;SDS011;51878;55.748;48.742;2023-09-07T20:44:15;1.13;;;0.85;;
65279;SDS011;51878;55.748;48.742;2023-09-07T20:49:19;1.20;;;1.10;;
65279;SDS011;51878;55.748;48.742;2023-09-07T20:54:22;3.83;;;1.35;;
65279;SDS011;51878;55.748;48.742;2023-09-07T20:59:28;1.08;;;1.00;;
65279;SDS011;51878;55.748;48.742;2023-09-07T21:04:31;1.88;;;0.82;;
65279;SDS011;51878;55.748;48.742;2023-09-07T21:09:33;4.63;;;1.10;;
65279;SDS011;51878;55.748;48.742;2023-09-07T21:14:36;3.55;;;0.95;;
65279;SDS011;51878;55.748;48.742;2023-09-07T21:19:38;0.90;;;0.90;;
65279;SDS011;51878;55.748;48.742;2023-09-07T21:24:41;2.80;;;1.20;;
65279;SDS011;51878;55.748;48.742;2023-09-07T21:29:43;2.75;;;1.10;;
65279;SDS011;51878;55.748;48.742;2023-09-07T21:34:45;3.05;;;1.10;;
65279;SDS011;51878;55.748;48.742;2023-09-07T21:39:48;1.58;;;0.90;;
65279;SDS011;51878;55.748;48.742;2023-09-07T21:44:53;1.20;;;1.10;;
65279;SDS011;51878;55.748;48.742;2023-09-07T21:49:56;2.88;;;1.27;;
65279;SDS011;51878;55.748;48.742;2023-09-07T21:54:58;1.70;;;1.10;;
65279;SDS011;51878;55.748;48.742;2023-09-07T22:00:01;2.40;;;1.20;;
65279;SDS011;51878;55.748;48.742;2023-09-07T22:05:06;1.10;;;1.00;;
65279;SDS011;51878;55.748;48.742;2023-09-07T22:10:09;3.70;;;1.42;;
65279;SDS011;51878;55.748;48.742;2023-09-07T22:15:12;1.00;;;0.90;;
65279;SDS011;51878;55.748;48.742;2023-09-07T22:20:15;2.35;;;1.55;;
65279;SDS011;51878;55.748;48.742;2023-09-07T22:25:17;10.35;;;1.45;;
65279;SDS011;51878;55.748;48.742;2023-09-07T22:30:20;2.13;;;1.10;;
65279;SDS011;51878;55.748;48.742;2023-09-07T22:35:22;1.85;;;1.35;;
65279;SDS011;51878;55.748;48.742;2023-09-07T22:40:25;4.03;;;1.42;;
65279;SDS011;51878;55.748;48.742;2023-09-07T22:45:27;2.60;;;1.10;;
65279;SDS011;51878;55.748;48.742;2023-09-07T22:50:34;1.20;;;1.15;;
65279;SDS011;51878;55.748;48.742;2023-09-07T22:55:40;5.90;;;1.35;;
65279;SDS011;51878;55.748;48.742;2023-09-07T23:00:45;1.35;;;1.10;;
65279;SDS011;51878;55.748;48.742;2023-09-07T23:05:48;1.98;;;1.10;;
65279;SDS011;51878;55.748;48.742;2023-09-07T23:10:51;5.85;;;1.98;;
65279;SDS011;51878;55.748;48.742;2023-09-07T23:15:53;5.40;;;1.90;;
65279;SDS011;51878;55.748;48.742;2023-09-07T23:20:56;1.75;;;1.63;;
65279;SDS011;51878;55.748;48.742;2023-09-07T23:25:58;5.13;;;1.80;;
65279;SDS011;51878;55.748;48.742;2023-09-07T23:31:00;2.45;;;1.67;;
65279;SDS011;51878;55.748;48.742;2023-09-07T23:36:03;3.33;;;1.83;;
65279;SDS011;51878;55.748;48.742;2023-09-07T23:41:06;2.40;;;1.73;;
65279;SDS011;51878;55.748;48.742;2023-09-07T23:46:08;3.53;;;1.92;;
65279;SDS011;51878;55.748;48.742;2023-09-07T23:51:10;2.72;;;1.70;;
65279;SDS011;51878;55.748;48.742;2023-09-07T23:56:13;8.77;;;2.28;;
